createdAt,value
2022-08-22T00:01:37.086Z,20.72
2022-08-22T00:02:56.591Z,23.69
2022-08-22T00:03:11.074Z,21.31
2022-08-22T00:04:13.278Z,20.74
2022-08-22T00:06:50.917Z,20.60
2022-08-22T00:09:31.574Z,20.64
2022-08-22T00:12:07.783Z,20.68
2022-08-22T00:14:40.920Z,20.64
2022-08-22T00:17:26.998Z,20.69
2022-08-22T00:20:02.874Z,20.68
2022-08-22T00:22:35.780Z,20.55
2022-08-22T00:25:24.671Z,20.49
2022-08-22T00:27:56.669Z,20.31
2022-08-22T00:30:23.979Z,20.32
2022-08-22T00:32:59.040Z,20.33
2022-08-22T00:35:32.301Z,20.20
2022-08-22T00:38:05.984Z,20.23
2022-08-22T00:40:47.974Z,20.02
2022-08-22T00:43:52.735Z,20.18
2022-08-22T00:46:48.473Z,20.18
2022-08-22T00:49:31.113Z,19.89
2022-08-22T00:52:22.703Z,20.15
2022-08-22T00:55:04.071Z,20.14
2022-08-22T00:57:46.956Z,20.12
2022-08-22T01:00:18.456Z,20.10
2022-08-22T01:03:09.463Z,19.98
2022-08-22T01:05:50.639Z,20.19
2022-08-22T01:08:35.655Z,20.25
2022-08-22T01:11:16.810Z,20.22
2022-08-22T01:14:07.139Z,20.11
2022-08-22T01:16:52.575Z,20.03
2022-08-22T01:19:51.824Z,20.15
2022-08-22T01:22:48.979Z,19.97
2022-08-22T01:25:53.876Z,20.15
2022-08-22T01:29:08.489Z,19.86
2022-08-22T01:32:28.641Z,19.96
2022-08-22T01:35:15.783Z,20.13
2022-08-22T01:38:12.597Z,20.12
2022-08-22T01:41:14.823Z,19.96
2022-08-22T01:43:59.602Z,20.09
2022-08-22T01:46:46.901Z,20.08
2022-08-22T01:49:19.083Z,19.93
2022-08-22T01:51:53.839Z,20.05
2022-08-22T01:54:44.535Z,19.90
2022-08-22T01:57:12.431Z,19.92
2022-08-22T01:59:42.993Z,20.00
2022-08-22T02:02:23.220Z,19.96
2022-08-22T02:05:01.582Z,19.88
2022-08-22T02:07:40.066Z,19.95
2022-08-22T02:10:15.813Z,19.96
2022-08-22T02:12:45.683Z,19.94
2022-08-22T02:15:22.075Z,19.87
2022-08-22T02:18:02.329Z,19.94
2022-08-22T02:20:33.696Z,19.83
2022-08-22T02:23:09.144Z,19.79
2022-08-22T02:25:51.343Z,19.76
2022-08-22T02:28:31.865Z,19.72
2022-08-22T02:31:05.492Z,19.70
2022-08-22T02:33:38.477Z,19.67
2022-08-22T02:36:18.580Z,19.86
2022-08-22T02:38:58.509Z,19.70
2022-08-22T02:41:32.626Z,19.75
2022-08-22T02:44:03.339Z,19.55
2022-08-22T02:46:41.577Z,19.55
2022-08-22T02:49:16.871Z,19.63
2022-08-22T02:51:53.079Z,19.72
2022-08-22T02:54:26.883Z,19.23
2022-08-22T02:57:00.764Z,19.34
2022-08-22T02:59:34.769Z,19.40
2022-08-22T03:02:25.323Z,19.38
2022-08-22T03:04:54.425Z,19.30
2022-08-22T03:07:33.420Z,19.34
2022-08-22T03:10:13.288Z,19.10
2022-08-22T03:12:47.315Z,19.15
2022-08-22T03:15:23.663Z,19.12
2022-08-22T03:17:55.521Z,19.00
2022-08-22T03:20:45.376Z,19.07
2022-08-22T03:23:20.385Z,19.08
2022-08-22T03:25:54.617Z,19.21
2022-08-22T03:28:27.742Z,19.16
2022-08-22T03:31:00.641Z,19.27
2022-08-22T03:33:29.867Z,19.02
2022-08-22T03:36:06.896Z,18.95
2022-08-22T03:39:16.567Z,19.08
2022-08-22T03:42:12.132Z,19.09
2022-08-22T03:44:58.477Z,19.05
2022-08-22T03:48:01.266Z,19.03
2022-08-22T03:51:06.198Z,18.98
2022-08-22T03:53:48.531Z,19.02
2022-08-22T03:56:47.914Z,19.14
2022-08-22T03:59:48.672Z,19.19
2022-08-22T04:02:43.492Z,19.41
2022-08-22T04:05:41.081Z,19.55
2022-08-22T04:08:28.879Z,19.59
2022-08-22T04:11:16.614Z,19.57
2022-08-22T04:13:58.616Z,19.71
2022-08-22T04:17:00.155Z,19.77
2022-08-22T04:19:57.464Z,19.89
2022-08-22T04:22:39.907Z,19.90
2022-08-22T04:25:11.618Z,19.96
2022-08-22T04:27:52.107Z,20.04
2022-08-22T04:30:25.284Z,20.28
2022-08-22T04:33:00.759Z,20.36
2022-08-22T04:35:31.167Z,20.45
2022-08-22T04:38:02.584Z,20.58
2022-08-22T04:40:36.008Z,20.74
2022-08-22T04:43:10.900Z,20.80
2022-08-22T04:45:41.437Z,21.11
2022-08-22T04:48:17.621Z,21.23
2022-08-22T04:50:51.790Z,21.23
2022-08-22T04:53:30.122Z,21.45
2022-08-22T04:56:07.614Z,21.58
2022-08-22T04:58:45.275Z,21.51
2022-08-22T05:01:18.376Z,21.78
2022-08-22T05:03:52.794Z,21.85
2022-08-22T05:06:23.360Z,22.09
2022-08-22T05:08:54.160Z,22.47
2022-08-22T05:11:23.871Z,23.21
2022-08-22T05:13:55.079Z,23.75
2022-08-22T05:16:29.334Z,23.65
2022-08-22T05:19:02.526Z,23.66
2022-08-22T05:21:32.294Z,23.68
2022-08-22T05:24:05.132Z,23.96
2022-08-22T05:26:38.528Z,24.25
2022-08-22T05:29:09.512Z,24.29
2022-08-22T05:31:41.880Z,24.15
2022-08-22T05:34:13.862Z,24.15
2022-08-22T05:36:45.119Z,24.32
2022-08-22T05:39:15.556Z,25.40
2022-08-22T05:42:14.618Z,26.01
2022-08-22T05:44:41.479Z,25.89
2022-08-22T05:47:21.234Z,25.79
2022-08-22T05:49:57.661Z,26.10
2022-08-22T05:52:36.992Z,25.93
2022-08-22T05:55:17.208Z,25.69
2022-08-22T05:57:49.984Z,25.18
2022-08-22T06:00:21.587Z,24.59
2022-08-22T06:03:03.245Z,24.39
2022-08-22T06:05:34.421Z,24.07
2022-08-22T06:08:06.492Z,23.48
2022-08-22T06:10:40.968Z,23.80
2022-08-22T06:13:12.004Z,23.95
2022-08-22T06:15:49.668Z,24.15
2022-08-22T06:18:22.510Z,24.30
2022-08-22T06:20:54.853Z,24.69
2022-08-22T06:23:26.196Z,25.66
2022-08-22T06:25:57.816Z,26.25
2022-08-22T06:28:26.901Z,27.34
2022-08-22T06:30:57.037Z,27.65
2022-08-22T06:33:27.450Z,27.93
2022-08-22T06:36:01.641Z,28.07
2022-08-22T06:38:31.439Z,28.47
2022-08-22T06:41:00.897Z,27.91
2022-08-22T06:43:36.701Z,27.29
2022-08-22T06:46:04.156Z,27.08
2022-08-22T06:48:31.613Z,27.41
2022-08-22T06:51:00.906Z,27.42
2022-08-22T06:53:32.686Z,27.40
2022-08-22T06:56:01.768Z,27.50
2022-08-22T06:58:34.224Z,27.94
2022-08-22T07:01:12.205Z,28.17
2022-08-22T07:03:43.786Z,28.20
2022-08-22T07:06:15.806Z,28.06
2022-08-22T07:08:42.588Z,28.36
2022-08-22T07:11:15.690Z,28.45
2022-08-22T07:13:45.601Z,28.85
2022-08-22T07:16:12.514Z,28.66
2022-08-22T07:18:47.127Z,28.33
2022-08-22T07:21:24.912Z,28.94
2022-08-22T07:23:52.427Z,29.20
2022-08-22T07:26:28.955Z,29.71
2022-08-22T07:28:59.619Z,30.36
2022-08-22T07:31:35.165Z,29.80
2022-08-22T07:34:16.314Z,29.73
2022-08-22T07:36:49.725Z,30.88
2022-08-22T07:39:25.938Z,31.34
2022-08-22T07:42:06.491Z,31.98
2022-08-22T07:44:43.877Z,32.45
2022-08-22T07:47:15.202Z,31.69
2022-08-22T07:49:53.040Z,32.67
2022-08-22T07:52:22.854Z,33.46
2022-08-22T07:54:54.524Z,32.66
2022-08-22T07:57:26.746Z,33.19
2022-08-22T07:59:55.986Z,33.26
2022-08-22T08:02:24.231Z,32.84
2022-08-22T08:04:54.428Z,32.42
2022-08-22T08:07:26.458Z,33.05
2022-08-22T08:09:57.577Z,33.30
2022-08-22T08:12:30.476Z,32.41
2022-08-22T08:14:58.665Z,33.18
2022-08-22T08:17:32.058Z,32.51
2022-08-22T08:20:03.700Z,32.85
2022-08-22T08:22:33.421Z,33.08
2022-08-22T08:25:01.945Z,32.65
2022-08-22T08:27:31.132Z,32.66
2022-08-22T08:30:02.173Z,32.19
2022-08-22T08:32:32.243Z,32.29
2022-08-22T08:35:02.267Z,31.88
2022-08-22T08:37:36.452Z,31.75
2022-08-22T08:40:18.097Z,31.91
2022-08-22T08:43:01.478Z,32.35
2022-08-22T08:46:02.162Z,32.18
2022-08-22T08:49:06.396Z,31.86
2022-08-22T08:51:57.140Z,31.61
2022-08-22T08:54:49.190Z,32.09
2022-08-22T08:57:28.268Z,32.67
2022-08-22T09:00:05.707Z,31.88
2022-08-22T09:02:48.023Z,31.07
2022-08-22T09:05:35.800Z,31.13
2022-08-22T09:08:29.047Z,31.00
2022-08-22T09:14:21.186Z,31.55
2022-08-22T09:17:09.707Z,31.61
2022-08-22T09:20:03.593Z,31.88
2022-08-22T09:23:18.503Z,31.41
2022-08-22T09:25:50.359Z,31.41
2022-08-22T09:28:24.426Z,31.00
2022-08-22T09:37:06.012Z,31.31
2022-08-22T09:39:45.708Z,31.17
2022-08-22T09:42:23.814Z,30.48
2022-08-22T09:48:43.580Z,30.48
2022-08-22T09:51:32.686Z,30.85
2022-08-22T09:57:37.629Z,31.06
2022-08-22T10:00:22.702Z,31.25
2022-08-22T10:03:02.716Z,31.18
2022-08-22T10:05:35.198Z,31.43
2022-08-22T10:08:31.952Z,31.20
2022-08-22T10:11:24.583Z,31.15
2022-08-22T10:14:01.311Z,30.65
2022-08-22T10:16:57.059Z,30.61
2022-08-22T10:19:29.872Z,30.89
2022-08-22T10:22:30.250Z,30.41
2022-08-22T10:25:09.791Z,30.77
2022-08-22T10:27:55.020Z,30.79
2022-08-22T10:30:27.646Z,30.73
2022-08-22T10:33:03.248Z,30.69
2022-08-22T10:35:37.537Z,30.75
2022-08-22T10:38:12.405Z,30.68
2022-08-22T10:40:43.028Z,30.56
2022-08-22T10:43:13.925Z,31.19
2022-08-22T10:45:45.175Z,31.62
2022-08-22T10:48:35.224Z,31.71
2022-08-22T10:51:18.177Z,31.27
2022-08-22T10:53:57.516Z,31.92
2022-08-22T10:56:29.468Z,32.63
2022-08-22T10:59:06.995Z,33.08
2022-08-22T11:01:43.999Z,33.29
2022-08-22T11:04:27.982Z,33.54
2022-08-22T11:07:09.414Z,33.44
2022-08-22T11:09:42.172Z,33.50
2022-08-22T11:12:20.016Z,32.83
2022-08-22T11:15:09.144Z,33.14
2022-08-22T11:18:07.878Z,33.73
2022-08-22T11:20:53.295Z,33.83
2022-08-22T11:23:36.467Z,34.31
2022-08-22T11:26:13.562Z,34.62
2022-08-22T11:29:13.181Z,34.59
2022-08-22T11:31:51.389Z,35.04
2022-08-22T11:34:31.439Z,34.98
2022-08-22T11:37:04.928Z,35.34
2022-08-22T11:39:43.305Z,35.65
2022-08-22T11:42:21.911Z,35.87
2022-08-22T11:44:53.896Z,35.96
2022-08-22T11:47:26.764Z,36.10
2022-08-22T11:50:02.583Z,35.48
2022-08-22T11:52:56.890Z,35.47
2022-08-22T11:55:34.630Z,35.83
2022-08-22T11:58:22.477Z,35.60
2022-08-22T12:01:00.253Z,35.59
2022-08-22T12:03:43.395Z,34.89
2022-08-22T12:06:30.446Z,34.67
2022-08-22T12:09:15.660Z,35.06
2022-08-22T12:11:56.452Z,35.48
2022-08-22T12:14:31.799Z,35.46
2022-08-22T12:17:10.761Z,35.37
2022-08-22T12:20:16.065Z,35.69
2022-08-22T12:23:02.458Z,35.66
2022-08-22T12:25:49.421Z,35.67
2022-08-22T12:28:27.912Z,35.41
2022-08-22T12:31:14.331Z,34.80
2022-08-22T12:34:11.553Z,35.05
2022-08-22T12:36:58.618Z,35.29
2022-08-22T12:39:41.095Z,33.48
2022-08-22T12:42:21.536Z,33.38
2022-08-22T12:45:05.899Z,34.10
2022-08-22T12:47:44.374Z,33.46
2022-08-22T12:50:25.038Z,33.25
2022-08-22T12:53:10.481Z,34.12
2022-08-22T12:55:52.848Z,34.43
2022-08-22T12:58:34.581Z,34.66
2022-08-22T13:01:06.349Z,34.85
2022-08-22T13:03:36.908Z,35.04
2022-08-22T13:06:25.184Z,35.28
2022-08-22T13:08:52.867Z,35.07
2022-08-22T13:11:22.971Z,35.20
2022-08-22T13:14:06.705Z,34.80
2022-08-22T13:16:48.994Z,34.97
2022-08-22T13:19:22.722Z,34.78
2022-08-22T13:21:55.000Z,34.39
2022-08-22T13:24:38.453Z,34.96
2022-08-22T13:27:14.119Z,34.80
2022-08-22T13:29:49.373Z,34.45
2022-08-22T13:32:23.438Z,34.51
2022-08-22T13:34:53.454Z,34.56
2022-08-22T13:37:25.717Z,34.77
2022-08-22T13:40:02.565Z,34.23
2022-08-22T13:42:32.231Z,34.52
2022-08-22T13:45:04.679Z,34.78
2022-08-22T13:47:35.819Z,34.54
2022-08-22T13:50:12.373Z,34.93
2022-08-22T13:52:52.313Z,35.55
2022-08-22T13:55:29.606Z,34.96
2022-08-22T13:58:00.714Z,34.33
2022-08-22T14:01:06.031Z,34.36
2022-08-22T14:03:40.927Z,34.72
2022-08-22T14:06:35.241Z,35.08
2022-08-22T14:09:14.272Z,35.08
2022-08-22T14:11:45.895Z,34.97
2022-08-22T14:14:19.935Z,34.72
2022-08-22T14:16:49.428Z,35.03
2022-08-22T14:19:27.393Z,35.32
2022-08-22T14:21:59.570Z,35.43
2022-08-22T14:24:31.480Z,35.51
2022-08-22T14:27:05.559Z,35.43
2022-08-22T14:29:41.962Z,35.24
2022-08-22T14:32:32.568Z,35.12
2022-08-22T14:35:21.669Z,34.43
2022-08-22T14:38:17.473Z,35.17
2022-08-22T14:40:47.115Z,35.25
2022-08-22T14:43:22.334Z,34.98
2022-08-22T14:45:56.876Z,35.28
2022-08-22T14:48:39.291Z,35.26
2022-08-22T14:51:17.667Z,34.94
2022-08-22T14:53:48.505Z,34.69
2022-08-22T14:56:20.823Z,34.93
2022-08-22T14:58:55.337Z,34.75
2022-08-22T15:01:25.030Z,34.62
2022-08-22T15:03:54.780Z,34.88
2022-08-22T15:06:37.080Z,35.13
2022-08-22T15:09:08.339Z,35.55
2022-08-22T15:11:37.309Z,35.42
2022-08-22T15:14:13.686Z,35.42
2022-08-22T15:16:45.139Z,35.46
2022-08-22T15:19:23.958Z,35.30
2022-08-22T15:22:06.958Z,35.29
2022-08-22T15:24:39.206Z,34.97
2022-08-22T15:27:10.326Z,35.04
2022-08-22T15:29:50.428Z,35.17
2022-08-22T15:32:22.202Z,35.11
2022-08-22T15:34:52.377Z,35.08
2022-08-22T15:37:33.081Z,34.91
2022-08-22T15:40:10.332Z,34.68
2022-08-22T15:42:42.254Z,34.26
2022-08-22T15:45:20.286Z,34.44
2022-08-22T15:47:52.498Z,34.41
2022-08-22T15:50:35.031Z,34.40
2022-08-22T15:53:24.430Z,34.03
2022-08-22T15:56:23.437Z,33.71
2022-08-22T15:59:09.102Z,33.68
2022-08-22T16:01:52.782Z,33.39
2022-08-22T16:04:35.668Z,33.46
2022-08-22T16:07:17.962Z,33.46
2022-08-22T16:13:41.190Z,33.01
2022-08-22T16:16:13.364Z,32.50
2022-08-22T16:19:30.926Z,32.45
2022-08-22T16:22:23.489Z,31.93
2022-08-22T16:25:12.541Z,31.70
2022-08-22T16:27:55.754Z,31.76
2022-08-22T16:30:38.575Z,31.47
2022-08-22T16:33:14.840Z,31.51
2022-08-22T16:39:11.442Z,31.02
2022-08-22T16:41:42.347Z,31.23
2022-08-22T16:44:40.730Z,31.24
2022-08-22T16:47:14.683Z,31.27
2022-08-22T16:49:56.953Z,31.19
2022-08-22T16:52:53.086Z,31.22
2022-08-22T16:55:56.355Z,31.19
2022-08-22T16:59:06.082Z,31.24
2022-08-22T17:01:56.353Z,31.22
2022-08-22T17:04:35.223Z,31.04
2022-08-22T17:07:34.100Z,30.93
2022-08-22T17:10:27.009Z,30.70
2022-08-22T17:13:06.968Z,30.62
2022-08-22T17:15:52.671Z,30.35
2022-08-22T17:18:35.572Z,30.35
2022-08-22T17:21:11.399Z,30.04
2022-08-22T17:23:53.533Z,29.92
2022-08-22T17:26:37.682Z,29.84
2022-08-22T17:29:15.382Z,29.45
2022-08-22T17:31:50.627Z,29.31
2022-08-22T17:34:33.461Z,29.25
2022-08-22T17:37:10.331Z,29.16
2022-08-22T17:40:01.290Z,29.08
2022-08-22T17:42:57.135Z,29.12
2022-08-22T17:45:36.807Z,28.98
2022-08-22T17:48:12.314Z,28.94
2022-08-22T17:50:44.631Z,28.96
2022-08-22T17:53:25.300Z,28.83
2022-08-22T17:56:02.281Z,28.85
2022-08-22T17:58:43.510Z,28.67
2022-08-22T18:01:14.926Z,28.58
2022-08-22T18:03:49.958Z,28.62
2022-08-22T18:06:21.613Z,28.57
2022-08-22T18:11:47.661Z,28.52
2022-08-22T18:14:25.568Z,28.50
2022-08-22T18:16:55.484Z,28.45
2022-08-22T18:19:39.840Z,28.35
2022-08-22T18:22:10.990Z,28.28
2022-08-22T18:24:44.560Z,28.18
2022-08-22T18:27:30.081Z,28.00
2022-08-22T18:30:15.414Z,27.93
2022-08-22T18:32:51.249Z,28.06
2022-08-22T18:35:27.445Z,27.87
2022-08-22T18:38:02.563Z,27.78
2022-08-22T18:40:46.923Z,27.69
2022-08-22T18:43:19.958Z,27.66
2022-08-22T18:46:25.308Z,27.61
2022-08-22T18:49:14.080Z,27.58
2022-08-22T18:51:41.298Z,27.52
2022-08-22T18:54:36.649Z,27.38
2022-08-22T18:57:25.872Z,27.27
2022-08-22T19:00:06.207Z,27.08
2022-08-22T19:02:55.932Z,27.13
2022-08-22T19:06:08.289Z,26.99
2022-08-22T19:08:57.663Z,27.13
2022-08-22T19:11:39.651Z,27.03
2022-08-22T19:14:15.185Z,27.04
2022-08-22T19:17:02.383Z,27.05
2022-08-22T19:19:41.736Z,26.97
2022-08-22T19:22:24.692Z,26.79
2022-08-22T19:25:14.598Z,26.97
2022-08-22T19:27:43.838Z,26.95
2022-08-22T19:30:40.333Z,26.94
2022-08-22T19:33:10.694Z,26.84
2022-08-22T19:36:06.943Z,26.76
2022-08-22T19:38:57.889Z,26.85
2022-08-22T19:41:45.468Z,26.81
2022-08-22T19:44:33.508Z,26.76
2022-08-22T19:47:07.197Z,26.81
2022-08-22T19:49:39.679Z,26.74
2022-08-22T19:52:19.086Z,26.81
2022-08-22T19:54:54.372Z,26.69
2022-08-22T19:57:34.011Z,26.57
2022-08-22T20:00:06.128Z,26.51
2022-08-22T20:03:14.269Z,26.48
2022-08-22T20:05:57.023Z,26.38
2022-08-22T20:08:54.466Z,26.26
2022-08-22T20:11:38.809Z,26.35
2022-08-22T20:14:30.650Z,26.28
2022-08-22T20:17:02.171Z,26.40
2022-08-22T20:19:38.164Z,26.31
2022-08-22T20:22:07.874Z,26.43
2022-08-22T20:24:40.048Z,26.34
2022-08-22T20:27:16.230Z,26.42
2022-08-22T20:29:49.909Z,26.37
2022-08-22T20:32:23.319Z,26.43
2022-08-22T20:34:55.278Z,26.18
2022-08-22T20:37:45.477Z,26.06
2022-08-22T20:40:55.897Z,26.08
2022-08-22T20:43:30.770Z,26.23
2022-08-22T20:46:12.706Z,26.24
2022-08-22T20:48:47.021Z,26.20
2022-08-22T20:51:17.404Z,26.30
2022-08-22T20:53:51.709Z,26.11
2022-08-22T20:56:31.840Z,26.04
2022-08-22T20:59:01.206Z,26.15
2022-08-22T21:01:32.331Z,26.13
2022-08-22T21:03:59.421Z,26.17
2022-08-22T21:06:32.062Z,25.90
2022-08-22T21:09:10.831Z,25.72
2022-08-22T21:11:39.756Z,25.81
2022-08-22T21:14:19.024Z,25.88
2022-08-22T21:16:48.257Z,25.88
2022-08-22T21:19:20.598Z,25.91
2022-08-22T21:21:47.485Z,26.00
2022-08-22T21:24:14.557Z,25.97
2022-08-22T21:27:00.843Z,26.02
2022-08-22T21:29:32.682Z,25.92
2022-08-22T21:32:18.649Z,25.92
2022-08-22T21:34:49.013Z,25.91
2022-08-22T21:37:18.197Z,25.84
2022-08-22T21:39:53.556Z,25.68
2022-08-22T21:42:37.498Z,25.73
2022-08-22T21:45:07.875Z,25.67
2022-08-22T21:47:38.440Z,25.64
2022-08-22T21:50:13.692Z,25.54
2022-08-22T21:52:44.092Z,25.54
2022-08-22T21:55:27.589Z,25.56
2022-08-22T21:58:12.593Z,25.30
2022-08-22T22:00:49.017Z,25.31
2022-08-22T22:03:21.449Z,25.35
2022-08-22T22:05:49.316Z,25.21
2022-08-22T22:08:17.092Z,25.24
2022-08-22T22:10:45.830Z,25.08
2022-08-22T22:13:12.623Z,25.08
2022-08-22T22:15:41.898Z,24.91
2022-08-22T22:18:08.751Z,24.96
2022-08-22T22:20:37.281Z,24.95
2022-08-22T22:23:04.732Z,24.84
2022-08-22T22:25:40.058Z,24.71
2022-08-22T22:28:12.776Z,24.62
2022-08-22T22:30:41.277Z,24.60
2022-08-22T22:33:07.960Z,24.60
2022-08-22T22:35:37.433Z,24.55
2022-08-22T22:38:03.965Z,24.45
2022-08-22T22:40:31.130Z,24.37
2022-08-22T22:42:57.771Z,24.23
2022-08-22T22:45:24.498Z,24.07
2022-08-22T22:47:51.078Z,24.05
2022-08-22T22:50:17.827Z,24.01
2022-08-22T22:52:45.731Z,24.06
2022-08-22T22:55:12.325Z,23.99
2022-08-22T22:57:51.353Z,24.11
2022-08-22T23:00:29.116Z,23.98
2022-08-22T23:02:57.818Z,23.95
2022-08-22T23:05:24.370Z,23.88
2022-08-22T23:07:52.317Z,23.93
2022-08-22T23:10:22.052Z,23.87
2022-08-22T23:12:48.970Z,23.84
2022-08-22T23:15:15.691Z,23.85
2022-08-22T23:17:42.524Z,23.70
2022-08-22T23:20:09.769Z,23.53
2022-08-22T23:22:36.496Z,23.57
2022-08-22T23:25:05.207Z,23.89
2022-08-22T23:27:32.452Z,23.72
2022-08-22T23:29:59.327Z,23.79
2022-08-22T23:32:25.838Z,24.01
2022-08-22T23:34:53.503Z,24.10
2022-08-22T23:37:21.683Z,24.14
2022-08-22T23:39:48.891Z,24.17
2022-08-22T23:42:17.564Z,24.19
2022-08-22T23:44:44.829Z,24.20
2022-08-22T23:47:12.545Z,24.21
2022-08-22T23:49:40.559Z,24.11
2022-08-22T23:52:08.492Z,24.25
2022-08-22T23:54:35.170Z,24.28
2022-08-22T23:57:11.946Z,24.23
2022-08-22T23:59:48.054Z,24.26
